createdAt,value
2019-05-07T00:01:58.366Z,76.80
2019-05-07T00:04:26.827Z,76.70
2019-05-07T00:06:55.287Z,76.60
2019-05-07T00:09:23.983Z,76.50
2019-05-07T00:11:53.362Z,76.30
2019-05-07T00:14:23.138Z,76.30
2019-05-07T00:16:53.507Z,76.30
2019-05-07T00:19:23.060Z,76.20
2019-05-07T00:21:52.798Z,76.30
2019-05-07T00:24:22.360Z,76.00
2019-05-07T00:26:53.054Z,76.10
2019-05-07T00:29:22.372Z,76.30
2019-05-07T00:31:52.052Z,76.40
2019-05-07T00:34:22.522Z,76.20
2019-05-07T00:37:06.974Z,76.10
2019-05-07T00:39:46.228Z,76.20
2019-05-07T00:42:22.256Z,76.30
2019-05-07T00:44:53.195Z,76.20
2019-05-07T00:47:22.228Z,76.00
2019-05-07T00:49:52.274Z,76.20
2019-05-07T00:52:22.554Z,76.40
2019-05-07T00:54:53.091Z,76.30
2019-05-07T00:57:22.895Z,76.40
2019-05-07T00:59:52.477Z,76.20
2019-05-07T01:02:22.779Z,76.40
2019-05-07T01:04:53.196Z,76.20
2019-05-07T01:07:22.865Z,76.60
2019-05-07T01:09:52.385Z,76.60
2019-05-07T01:12:22.196Z,77.00
2019-05-07T01:14:52.787Z,77.10
2019-05-07T01:17:22.759Z,77.00
2019-05-07T01:19:53.285Z,77.10
2019-05-07T01:22:22.456Z,77.50
2019-05-07T01:24:52.548Z,78.00
2019-05-07T01:27:22.673Z,78.00
2019-05-07T01:29:52.839Z,78.00
2019-05-07T01:32:32.964Z,78.30
2019-05-07T01:35:09.741Z,78.20
2019-05-07T01:37:38.660Z,78.40
2019-05-07T01:40:07.159Z,78.50
2019-05-07T01:42:36.746Z,78.70
2019-05-07T01:45:06.923Z,78.50
2019-05-07T01:47:35.363Z,78.70
2019-05-07T01:50:04.438Z,78.90
2019-05-07T01:52:33.234Z,79.00
2019-05-07T01:55:03.197Z,79.10
2019-05-07T01:57:32.563Z,79.10
2019-05-07T02:00:02.577Z,79.20
2019-05-07T02:02:33.694Z,79.10
2019-05-07T02:05:03.911Z,79.30
2019-05-07T02:07:34.110Z,79.20
2019-05-07T02:10:07.627Z,79.10
2019-05-07T02:12:37.495Z,79.30
2019-05-07T02:15:09.307Z,79.30
2019-05-07T02:17:38.151Z,79.30
2019-05-07T02:20:08.019Z,79.30
2019-05-07T02:22:37.439Z,79.20
2019-05-07T02:25:07.308Z,79.60
2019-05-07T02:27:36.212Z,79.30
2019-05-07T02:30:06.610Z,79.20
2019-05-07T02:32:35.360Z,79.10
2019-05-07T02:35:05.862Z,79.20
2019-05-07T02:37:48.547Z,79.20
2019-05-07T02:40:22.937Z,79.20
2019-05-07T02:42:54.041Z,79.20
2019-05-07T02:45:24.253Z,79.30
2019-05-07T02:47:55.915Z,79.30
2019-05-07T02:50:38.171Z,79.30
2019-05-07T02:53:08.462Z,79.30
2019-05-07T02:55:43.497Z,79.30
2019-05-07T02:58:13.725Z,79.50
2019-05-07T03:00:43.461Z,79.50
2019-05-07T03:03:13.798Z,79.40
2019-05-07T03:05:43.412Z,79.50
2019-05-07T03:08:13.710Z,79.50
2019-05-07T03:10:43.408Z,79.50
2019-05-07T03:13:14.003Z,79.60
2019-05-07T03:15:43.489Z,79.50
2019-05-07T03:18:13.847Z,79.60
2019-05-07T03:20:44.605Z,79.70
2019-05-07T03:23:14.700Z,79.50
2019-05-07T03:25:59.934Z,79.30
2019-05-07T03:28:28.440Z,79.20
2019-05-07T03:30:58.520Z,79.30
2019-05-07T03:33:37.343Z,78.90
2019-05-07T03:36:08.124Z,78.90
2019-05-07T03:38:37.911Z,78.80
2019-05-07T03:41:06.678Z,78.80
2019-05-07T03:43:35.134Z,78.90
2019-05-07T03:46:05.380Z,78.80
2019-05-07T03:48:35.467Z,78.80
2019-05-07T03:51:04.020Z,78.70
2019-05-07T03:53:33.793Z,78.70
2019-05-07T03:56:04.148Z,78.70
2019-05-07T03:58:34.305Z,78.60
2019-05-07T04:01:04.485Z,78.30
2019-05-07T04:03:34.726Z,78.00
2019-05-07T04:06:04.083Z,78.40
2019-05-07T04:08:33.642Z,78.20
2019-05-07T04:11:03.948Z,78.20
2019-05-07T04:13:33.791Z,78.10
2019-05-07T04:16:04.991Z,78.20
2019-05-07T04:18:34.392Z,78.20
2019-05-07T04:21:04.205Z,78.10
2019-05-07T04:23:34.182Z,78.20
2019-05-07T04:26:13.111Z,78.10
2019-05-07T04:28:54.387Z,78.20
2019-05-07T04:31:24.779Z,78.10
2019-05-07T04:33:54.148Z,78.00
2019-05-07T04:36:24.228Z,78.20
2019-05-07T04:38:53.255Z,78.00
2019-05-07T04:41:23.302Z,78.10
2019-05-07T04:43:54.099Z,77.60
2019-05-07T04:46:23.511Z,77.60
2019-05-07T04:48:53.012Z,77.50
2019-05-07T04:51:23.476Z,77.30
2019-05-07T04:53:54.154Z,77.20
2019-05-07T04:56:23.802Z,77.10
2019-05-07T04:58:53.090Z,76.50
2019-05-07T05:01:23.749Z,76.70
2019-05-07T05:03:54.091Z,76.80
2019-05-07T05:06:24.186Z,76.60
2019-05-07T05:08:56.081Z,76.60
2019-05-07T05:11:23.847Z,75.80
2019-05-07T05:13:53.319Z,75.80
2019-05-07T05:16:28.203Z,75.40
2019-05-07T05:18:57.476Z,74.60
2019-05-07T05:21:32.278Z,74.40
2019-05-07T05:24:05.756Z,74.20
2019-05-07T05:26:34.210Z,73.60
2019-05-07T05:29:02.739Z,73.30
2019-05-07T05:31:33.015Z,73.10
2019-05-07T05:34:02.173Z,71.70
2019-05-07T05:36:33.022Z,72.10
2019-05-07T05:39:02.522Z,71.10
2019-05-07T05:41:34.102Z,72.00
2019-05-07T05:44:20.162Z,72.20
2019-05-07T05:46:48.619Z,71.20
2019-05-07T05:49:17.070Z,70.60
2019-05-07T05:51:59.355Z,70.90
2019-05-07T05:54:32.415Z,69.70
2019-05-07T05:57:07.866Z,70.50
2019-05-07T05:59:48.965Z,68.80
2019-05-07T06:02:25.178Z,68.50
2019-05-07T06:05:12.589Z,68.40
2019-05-07T06:07:43.061Z,67.10
2019-05-07T06:10:19.544Z,68.00
2019-05-07T06:13:04.564Z,66.80
2019-05-07T06:15:34.935Z,66.50
2019-05-07T06:18:21.027Z,66.40
2019-05-07T06:20:45.799Z,67.00
2019-05-07T06:23:22.630Z,67.80
2019-05-07T06:25:52.388Z,67.90
2019-05-07T06:28:22.411Z,68.30
2019-05-07T06:30:52.694Z,67.30
2019-05-07T06:33:22.931Z,67.80
2019-05-07T06:35:52.187Z,67.10
2019-05-07T06:38:22.049Z,66.20
2019-05-07T06:41:09.128Z,66.00
2019-05-07T06:43:55.431Z,66.00
2019-05-07T06:46:23.980Z,64.80
2019-05-07T06:48:52.800Z,63.70
2019-05-07T06:51:22.112Z,64.20
2019-05-07T06:53:51.878Z,64.00
2019-05-07T06:56:22.891Z,64.10
2019-05-07T06:58:55.041Z,63.90
2019-05-07T07:01:25.402Z,63.40
2019-05-07T07:03:55.637Z,64.10
2019-05-07T07:06:25.741Z,62.80
2019-05-07T07:08:55.846Z,63.20
2019-05-07T07:11:28.968Z,60.20
2019-05-07T07:13:56.747Z,60.60
2019-05-07T07:16:25.475Z,60.60
2019-05-07T07:18:55.752Z,60.30
2019-05-07T07:21:24.086Z,60.20
2019-05-07T07:23:52.799Z,60.60
2019-05-07T07:26:22.099Z,60.40
2019-05-07T07:28:52.487Z,60.10
2019-05-07T07:31:28.453Z,60.00
2019-05-07T07:33:58.679Z,57.90
2019-05-07T07:36:29.110Z,58.90
2019-05-07T07:38:57.636Z,59.60
2019-05-07T07:41:34.188Z,56.60
2019-05-07T07:44:02.723Z,55.10
2019-05-07T07:46:33.018Z,56.40
2019-05-07T07:49:07.964Z,53.40
2019-05-07T07:51:40.840Z,51.20
2019-05-07T07:54:02.603Z,51.00
2019-05-07T07:56:47.840Z,52.20
2019-05-07T07:59:08.205Z,52.40
2019-05-07T08:01:44.240Z,52.00
2019-05-07T08:04:13.190Z,49.60
2019-05-07T08:06:42.167Z,50.30
2019-05-07T08:09:13.003Z,49.80
2019-05-07T08:11:42.572Z,47.10
2019-05-07T08:14:13.324Z,47.50
2019-05-07T08:16:42.901Z,46.30
2019-05-07T08:19:19.358Z,44.70
2019-05-07T08:21:42.288Z,44.70
2019-05-07T08:24:12.193Z,44.90
2019-05-07T08:26:42.873Z,41.40
2019-05-07T08:29:11.941Z,40.70
2019-05-07T08:31:57.367Z,42.90
2019-05-07T08:34:27.735Z,43.90
2019-05-07T08:36:56.560Z,42.80
2019-05-07T08:39:25.323Z,40.20
2019-05-07T08:41:53.841Z,42.20
2019-05-07T08:44:33.265Z,42.10
2019-05-07T08:47:09.523Z,39.80
2019-05-07T08:49:41.143Z,40.30
2019-05-07T08:52:11.993Z,42.60
2019-05-07T08:54:42.624Z,38.90
2019-05-07T08:57:12.157Z,40.50
2019-05-07T08:59:43.703Z,40.00
2019-05-07T09:02:12.553Z,40.20
2019-05-07T09:04:41.792Z,38.60
2019-05-07T09:07:12.827Z,38.40
2019-05-07T09:09:42.746Z,37.00
2019-05-07T09:12:12.438Z,36.10
2019-05-07T09:14:42.545Z,36.70
2019-05-07T09:17:12.806Z,37.30
2019-05-07T09:19:50.698Z,36.70
2019-05-07T09:22:12.822Z,35.40
2019-05-07T09:24:42.417Z,35.50
2019-05-07T09:27:13.149Z,36.70
2019-05-07T09:29:52.500Z,36.90
2019-05-07T09:32:25.404Z,36.60
2019-05-07T09:34:58.200Z,37.80
2019-05-07T09:37:28.514Z,39.30
2019-05-07T09:39:57.061Z,39.80
2019-05-07T09:42:25.830Z,39.00
2019-05-07T09:44:54.299Z,40.40
2019-05-07T09:47:23.216Z,39.70
2019-05-07T09:50:04.021Z,40.20
2019-05-07T09:52:22.862Z,38.00
2019-05-07T09:54:52.325Z,37.10
2019-05-07T09:57:30.252Z,37.90
2019-05-07T09:59:53.133Z,36.70
2019-05-07T10:02:22.656Z,32.90
2019-05-07T10:04:52.591Z,33.60
2019-05-07T10:07:22.394Z,35.10
2019-05-07T10:09:52.345Z,34.50
2019-05-07T10:12:28.730Z,35.10
2019-05-07T10:14:57.664Z,36.00
2019-05-07T10:17:27.742Z,36.80
2019-05-07T10:19:56.196Z,37.10
2019-05-07T10:22:25.064Z,33.30
2019-05-07T10:24:53.958Z,30.30
2019-05-07T10:27:22.475Z,31.30
2019-05-07T10:29:53.015Z,30.60
2019-05-07T10:32:21.710Z,32.40
2019-05-07T10:34:52.376Z,31.90
2019-05-07T10:37:20.390Z,32.10
2019-05-07T10:39:49.036Z,28.70
2019-05-07T10:42:17.571Z,30.00
2019-05-07T10:44:53.908Z,29.80
2019-05-07T10:47:24.008Z,30.00
2019-05-07T10:50:11.836Z,30.70
2019-05-07T10:52:42.501Z,30.70
2019-05-07T10:55:12.106Z,30.80
2019-05-07T10:57:42.249Z,32.60
2019-05-07T11:00:14.525Z,32.60
2019-05-07T11:02:42.979Z,32.30
2019-05-07T11:05:13.063Z,31.20
2019-05-07T11:07:42.335Z,31.30
2019-05-07T11:10:12.394Z,30.80
2019-05-07T11:12:42.517Z,30.60
2019-05-07T11:15:12.645Z,31.00
2019-05-07T11:18:02.705Z,31.10
2019-05-07T11:20:32.038Z,31.60
2019-05-07T11:23:02.607Z,31.30
2019-05-07T11:25:31.039Z,31.50
2019-05-07T11:27:59.487Z,31.70
2019-05-07T11:30:28.026Z,29.70
2019-05-07T11:32:56.481Z,28.90
2019-05-07T11:35:24.936Z,29.90
2019-05-07T11:37:53.395Z,28.80
2019-05-07T11:40:23.050Z,30.00
2019-05-07T11:43:07.005Z,27.30
2019-05-07T11:45:46.443Z,28.00
2019-05-07T11:48:15.623Z,27.10
2019-05-07T11:51:00.458Z,27.40
2019-05-07T11:53:22.056Z,26.90
2019-05-07T11:55:52.364Z,27.60
2019-05-07T11:58:22.014Z,28.60
2019-05-07T12:00:52.531Z,28.50
2019-05-07T12:03:22.120Z,28.10
2019-05-07T12:05:52.530Z,27.10
2019-05-07T12:08:23.695Z,28.20
2019-05-07T12:10:51.817Z,29.10
2019-05-07T12:13:21.835Z,27.50
2019-05-07T12:15:52.234Z,27.00
2019-05-07T12:18:22.537Z,27.80
2019-05-07T12:20:53.872Z,27.60
2019-05-07T12:23:22.651Z,27.40
2019-05-07T12:25:54.448Z,26.50
2019-05-07T12:28:23.259Z,27.80
2019-05-07T12:30:59.086Z,27.80
2019-05-07T12:33:32.347Z,28.10
2019-05-07T12:36:03.786Z,27.80
2019-05-07T12:38:32.462Z,29.00
2019-05-07T12:41:02.596Z,27.90
2019-05-07T12:43:31.939Z,28.10
2019-05-07T12:46:02.719Z,28.70
2019-05-07T12:48:30.908Z,28.80
2019-05-07T12:50:59.357Z,27.40
2019-05-07T12:53:29.438Z,27.70
2019-05-07T12:56:02.760Z,27.80
2019-05-07T12:58:32.924Z,28.20
2019-05-07T13:01:06.217Z,27.20
2019-05-07T13:03:38.978Z,28.50
2019-05-07T13:06:07.419Z,29.10
2019-05-07T13:08:36.126Z,28.00
2019-05-07T13:11:05.029Z,28.40
2019-05-07T13:13:33.724Z,28.30
2019-05-07T13:16:02.968Z,28.20
2019-05-07T13:18:32.244Z,29.30
2019-05-07T13:21:02.408Z,28.50
2019-05-07T13:23:32.400Z,28.70
2019-05-07T13:26:02.607Z,29.40
2019-05-07T13:28:31.361Z,27.80
2019-05-07T13:31:02.224Z,28.40
2019-05-07T13:33:34.487Z,28.30
2019-05-07T13:36:02.447Z,30.30
2019-05-07T13:38:33.463Z,30.00
2019-05-07T13:41:03.661Z,30.40
2019-05-07T13:43:33.812Z,29.80
2019-05-07T13:46:12.121Z,30.00
2019-05-07T13:48:45.413Z,30.90
2019-05-07T13:51:12.723Z,30.00
2019-05-07T13:53:42.763Z,29.90
2019-05-07T13:56:12.828Z,30.70
2019-05-07T13:58:42.807Z,30.50
2019-05-07T14:01:29.236Z,31.80
2019-05-07T14:03:57.770Z,31.00
2019-05-07T14:06:38.423Z,31.50
2019-05-07T14:09:24.547Z,29.80
2019-05-07T14:11:53.070Z,30.80
2019-05-07T14:14:22.526Z,29.50
2019-05-07T14:16:53.063Z,30.80
2019-05-07T14:19:22.391Z,30.10
2019-05-07T14:21:52.523Z,29.50
2019-05-07T14:24:22.403Z,30.30
2019-05-07T14:26:52.865Z,30.00
2019-05-07T14:29:24.376Z,30.70
2019-05-07T14:31:53.707Z,27.50
2019-05-07T14:34:34.888Z,30.00
2019-05-07T14:37:04.705Z,27.10
2019-05-07T14:39:33.567Z,28.00
2019-05-07T14:42:03.678Z,28.40
2019-05-07T14:44:48.027Z,29.20
2019-05-07T14:47:18.271Z,30.90
2019-05-07T14:49:47.650Z,28.70
2019-05-07T14:52:29.015Z,29.10
2019-05-07T14:54:46.355Z,28.90
2019-05-07T14:57:15.188Z,28.80
2019-05-07T14:59:43.774Z,27.90
2019-05-07T15:02:12.721Z,29.00
2019-05-07T15:04:41.923Z,27.90
2019-05-07T15:07:11.967Z,28.70
2019-05-07T15:09:42.388Z,28.50
2019-05-07T15:12:12.456Z,29.20
2019-05-07T15:14:42.129Z,30.00
2019-05-07T15:17:24.720Z,29.80
2019-05-07T15:19:54.639Z,32.10
2019-05-07T15:22:46.087Z,29.70
2019-05-07T15:25:05.332Z,31.90
2019-05-07T15:27:34.447Z,30.30
2019-05-07T15:30:03.762Z,30.20
2019-05-07T15:32:32.413Z,30.10
2019-05-07T15:35:02.212Z,31.60
2019-05-07T15:37:32.195Z,30.80
2019-05-07T15:40:02.496Z,30.10
2019-05-07T15:42:32.790Z,30.00
2019-05-07T15:45:02.343Z,30.00
2019-05-07T15:47:42.121Z,30.20
2019-05-07T15:50:12.463Z,31.10
2019-05-07T15:52:42.491Z,30.90
2019-05-07T15:55:11.926Z,30.90
2019-05-07T15:57:42.665Z,30.70
2019-05-07T16:00:19.208Z,31.50
2019-05-07T16:02:55.280Z,37.60
2019-05-07T16:05:24.055Z,31.90
2019-05-07T16:07:53.223Z,28.20
2019-05-07T16:10:23.275Z,31.20
2019-05-07T16:12:53.188Z,29.40
2019-05-07T16:15:26.032Z,30.60
2019-05-07T16:18:02.927Z,26.80
2019-05-07T16:20:32.585Z,27.90
2019-05-07T16:23:14.458Z,27.60
2019-05-07T16:25:32.953Z,28.10
2019-05-07T16:28:02.082Z,26.90
2019-05-07T16:30:32.366Z,27.70
2019-05-07T16:33:02.303Z,27.60
2019-05-07T16:35:31.980Z,28.20
2019-05-07T16:38:00.827Z,29.20
2019-05-07T16:40:29.525Z,28.60
2019-05-07T16:42:58.055Z,29.70
2019-05-07T16:45:26.605Z,33.80
2019-05-07T16:47:55.311Z,32.40
2019-05-07T16:50:23.828Z,31.60
2019-05-07T16:52:52.577Z,34.60
2019-05-07T16:55:23.481Z,31.10
2019-05-07T16:58:06.169Z,27.60
2019-05-07T17:00:36.508Z,28.80
2019-05-07T17:03:07.124Z,28.20
2019-05-07T17:05:35.856Z,27.10
2019-05-07T17:08:05.944Z,27.60
2019-05-07T17:10:34.475Z,25.10
2019-05-07T17:13:02.983Z,25.60
2019-05-07T17:15:33.231Z,25.40
2019-05-07T17:18:02.844Z,25.10
2019-05-07T17:20:32.797Z,25.20
2019-05-07T17:23:02.994Z,26.00
2019-05-07T17:25:37.659Z,25.40
2019-05-07T17:28:07.577Z,25.80
2019-05-07T17:30:37.683Z,26.40
2019-05-07T17:33:06.778Z,26.40
2019-05-07T17:35:35.353Z,26.70
2019-05-07T17:38:08.951Z,26.60
2019-05-07T17:40:34.040Z,26.60
2019-05-07T17:43:03.219Z,27.60
2019-05-07T17:45:32.412Z,27.70
2019-05-07T17:48:03.136Z,27.50
2019-05-07T17:50:37.751Z,29.20
2019-05-07T17:53:06.446Z,30.00
2019-05-07T17:55:35.272Z,30.00
2019-05-07T17:58:04.119Z,28.60
2019-05-07T18:00:33.145Z,28.50
2019-05-07T18:03:09.146Z,29.10
2019-05-07T18:05:37.983Z,29.20
2019-05-07T18:08:06.504Z,30.30
2019-05-07T18:10:34.963Z,30.60
2019-05-07T18:13:03.670Z,32.50
2019-05-07T18:15:32.297Z,32.40
2019-05-07T18:18:03.111Z,33.60
2019-05-07T18:20:32.828Z,34.40
2019-05-07T18:23:02.695Z,35.30
2019-05-07T18:25:32.430Z,35.30
2019-05-07T18:28:01.849Z,35.80
2019-05-07T18:30:32.554Z,36.10
2019-05-07T18:33:02.654Z,35.90
2019-05-07T18:35:32.161Z,36.20
2019-05-07T18:38:02.478Z,36.60
2019-05-07T18:40:31.083Z,36.30
2019-05-07T18:42:59.523Z,35.60
2019-05-07T18:45:27.978Z,35.80
2019-05-07T18:47:56.681Z,35.80
2019-05-07T18:50:25.149Z,37.00
2019-05-07T18:52:53.868Z,37.80
2019-05-07T18:55:22.816Z,38.00
2019-05-07T18:57:51.894Z,39.00
2019-05-07T19:00:25.154Z,40.10
2019-05-07T19:02:52.820Z,41.50
2019-05-07T19:05:22.289Z,41.70
2019-05-07T19:08:03.837Z,40.80
2019-05-07T19:10:22.013Z,41.70
2019-05-07T19:12:52.765Z,42.10
2019-05-07T19:15:22.717Z,41.80
2019-05-07T19:17:51.246Z,43.00
2019-05-07T19:20:21.695Z,43.20
2019-05-07T19:22:51.847Z,43.90
2019-05-07T19:25:20.429Z,44.20
2019-05-07T19:27:49.514Z,45.00
2019-05-07T19:30:18.455Z,44.80
2019-05-07T19:32:47.183Z,45.40
2019-05-07T19:35:15.868Z,45.60
2019-05-07T19:37:44.656Z,46.00
2019-05-07T19:40:13.328Z,46.20
2019-05-07T19:42:42.853Z,45.90
2019-05-07T19:45:12.793Z,46.10
2019-05-07T19:47:42.800Z,46.80
2019-05-07T19:50:12.601Z,47.30
2019-05-07T19:52:42.639Z,48.30
2019-05-07T19:55:11.335Z,48.20
2019-05-07T19:57:53.963Z,48.40
2019-05-07T20:00:23.983Z,47.90
2019-05-07T20:02:54.231Z,48.10
2019-05-07T20:05:23.050Z,49.20
2019-05-07T20:07:55.575Z,49.50
2019-05-07T20:10:23.639Z,49.60
2019-05-07T20:12:52.274Z,50.80
2019-05-07T20:15:22.378Z,51.00
2019-05-07T20:17:52.607Z,51.20
2019-05-07T20:20:22.178Z,52.20
2019-05-07T20:22:51.853Z,52.50
2019-05-07T20:25:22.506Z,53.40
2019-05-07T20:27:52.700Z,53.90
2019-05-07T20:30:22.858Z,54.20
2019-05-07T20:32:52.340Z,55.30
2019-05-07T20:35:21.012Z,55.60
2019-05-07T20:37:49.705Z,55.90
2019-05-07T20:40:18.180Z,55.80
2019-05-07T20:42:48.824Z,55.90
2019-05-07T20:45:17.604Z,56.30
2019-05-07T20:47:46.052Z,56.70
2019-05-07T20:50:15.115Z,56.50
2019-05-07T20:52:43.651Z,56.60
2019-05-07T20:55:21.070Z,57.00
2019-05-07T20:57:45.628Z,57.30
2019-05-07T21:00:17.659Z,58.10
2019-05-07T21:02:48.333Z,58.00
2019-05-07T21:05:16.833Z,58.20
2019-05-07T21:07:45.600Z,58.40
2019-05-07T21:10:14.142Z,58.40
2019-05-07T21:12:42.656Z,58.80
2019-05-07T21:15:12.377Z,59.30
2019-05-07T21:17:42.882Z,59.60
2019-05-07T21:20:12.090Z,60.00
2019-05-07T21:22:42.536Z,60.00
2019-05-07T21:25:12.000Z,60.20
2019-05-07T21:27:43.057Z,60.10
2019-05-07T21:30:13.094Z,60.30
2019-05-07T21:32:42.133Z,60.30
2019-05-07T21:35:11.430Z,60.50
2019-05-07T21:37:41.815Z,60.10
2019-05-07T21:40:10.431Z,60.20
2019-05-07T21:42:38.867Z,60.10
2019-05-07T21:45:07.449Z,60.20
2019-05-07T21:47:35.899Z,60.20
2019-05-07T21:50:08.464Z,60.30
2019-05-07T21:52:39.524Z,60.40
2019-05-07T21:55:22.455Z,60.50
2019-05-07T21:57:54.580Z,60.60
2019-05-07T22:00:25.376Z,61.00
2019-05-07T22:02:55.505Z,61.00
2019-05-07T22:05:24.200Z,60.90
2019-05-07T22:07:54.419Z,61.00
2019-05-07T22:10:22.967Z,61.20
2019-05-07T22:12:52.031Z,61.10
2019-05-07T22:15:22.458Z,61.20
2019-05-07T22:17:52.094Z,61.30
2019-05-07T22:20:20.655Z,61.50
2019-05-07T22:22:49.112Z,61.50
2019-05-07T22:25:17.551Z,61.40
2019-05-07T22:27:46.274Z,61.50
2019-05-07T22:30:16.491Z,61.60
2019-05-07T22:32:46.576Z,61.80
2019-05-07T22:35:25.623Z,61.80
2019-05-07T22:37:54.116Z,62.00
2019-05-07T22:40:22.673Z,61.90
2019-05-07T22:42:51.116Z,62.20
2019-05-07T22:45:19.549Z,62.20
2019-05-07T22:47:48.235Z,62.10
2019-05-07T22:50:16.968Z,62.10
2019-05-07T22:52:45.638Z,62.20
2019-05-07T22:55:14.268Z,62.40
2019-05-07T22:58:01.195Z,62.30
2019-05-07T23:00:32.143Z,62.50
2019-05-07T23:03:02.699Z,62.70
2019-05-07T23:05:32.390Z,62.60
2019-05-07T23:08:02.377Z,62.60
2019-05-07T23:10:33.090Z,62.80
2019-05-07T23:13:02.297Z,63.00
2019-05-07T23:15:32.154Z,62.90
2019-05-07T23:18:04.184Z,62.90
2019-05-07T23:20:32.065Z,62.90
2019-05-07T23:23:01.175Z,62.80
2019-05-07T23:25:32.074Z,63.20
2019-05-07T23:28:04.912Z,63.40
2019-05-07T23:30:32.945Z,63.50
2019-05-07T23:33:02.417Z,63.30
2019-05-07T23:35:32.867Z,63.10
2019-05-07T23:38:02.468Z,63.10
2019-05-07T23:40:35.355Z,62.80
2019-05-07T23:43:12.246Z,63.00
2019-05-07T23:45:42.026Z,63.00
2019-05-07T23:48:12.333Z,63.00
2019-05-07T23:50:41.891Z,63.20
2019-05-07T23:53:12.762Z,63.60
2019-05-07T23:55:42.443Z,63.50
2019-05-07T23:58:13.869Z,63.60
